Time;durP1;ratioP1;P1;durP2;ratioP2;P2;SDS_P1;SDS_P2;PMS_P1;PMS_P2;Temp;Humidity;BMP_temperature;BMP_pressure;BME280_temperature;BME280_humidity;BME280_pressure;Samples;Min_cycle;Max_cycle;Signal;HPM_P1;HPM_P2
2021/12/15 00:00:21;;;;;;;4.28;2.05;;;8.60;99.90;;;;;;4416149;32;20415;-71
2021/12/15 00:02:51;;;;;;;2.62;1.98;;;8.60;99.90;;;;;;4416014;32;20082;-71
2021/12/15 00:05:22;;;;;;;7.55;2.50;;;8.50;99.90;;;;;;4414020;32;20096;-70
2021/12/15 00:07:49;;;;;;;3.20;1.50;;;8.50;99.90;;;;;;4416318;32;20118;-70
2021/12/15 00:10:15;;;;;;;10.43;2.05;;;8.50;99.90;;;;;;4416856;32;20089;-69
2021/12/15 00:12:41;;;;;;;3.45;1.67;;;8.50;99.90;;;;;;4418394;32;20639;-69
2021/12/15 00:15:07;;;;;;;13.20;1.67;;;8.40;99.90;;;;;;4418398;32;20093;-69
2021/12/15 00:17:33;;;;;;;5.20;1.75;;;8.40;99.90;;;;;;4423553;32;20136;-70
2021/12/15 00:19:58;;;;;;;3.30;1.80;;;8.40;99.90;;;;;;4419766;32;20073;-70
2021/12/15 00:22:24;;;;;;;3.58;1.27;;;8.40;99.90;;;;;;4417124;32;20081;-70
2021/12/15 00:24:49;;;;;;;4.22;1.65;;;8.40;99.90;;;;;;4421641;32;20074;-70
2021/12/15 00:27:15;;;;;;;19.35;1.98;;;8.40;99.90;;;;;;4417831;32;20081;-70
2021/12/15 00:29:40;;;;;;;4.00;1.67;;;8.40;99.90;;;;;;4415283;32;20580;-70
2021/12/15 00:32:06;;;;;;;7.57;1.98;;;8.40;99.90;;;;;;4419378;32;20427;-69
2021/12/15 00:34:37;;;;;;;1.12;1.02;;;8.40;99.90;;;;;;4418006;32;20065;-70
2021/12/15 00:37:03;;;;;;;;;;;8.40;99.90;;;;;;4417816;32;20098;-70
2021/12/15 00:39:30;;;;;;;0.95;0.80;;;8.40;99.90;;;;;;4416920;32;19964;-70
2021/12/15 00:41:56;;;;;;;10.38;1.58;;;8.40;99.90;;;;;;4416181;32;20094;-70
2021/12/15 00:44:22;;;;;;;1.40;1.30;;;8.40;99.90;;;;;;4417496;32;20082;-70
2021/12/15 00:46:50;;;;;;;2.50;1.65;;;8.40;99.90;;;;;;4418423;32;20419;-69
2021/12/15 00:49:16;;;;;;;6.55;1.67;;;8.40;99.90;;;;;;4413415;32;20066;-69
2021/12/15 00:51:42;;;;;;;2.30;0.95;;;8.30;99.90;;;;;;4417270;32;20110;-69
2021/12/15 00:54:10;;;;;;;5.68;1.75;;;8.40;99.90;;;;;;4418391;32;20070;-69
2021/12/15 00:56:36;;;;;;;1.33;1.00;;;8.40;99.90;;;;;;4420441;32;20069;-70
2021/12/15 00:59:05;;;;;;;4.03;1.65;;;8.30;99.90;;;;;;4417706;32;20456;-70
2021/12/15 01:01:30;;;;;;;3.28;1.67;;;8.30;99.90;;;;;;4419312;32;20069;-70
2021/12/15 01:03:56;;;;;;;5.55;2.05;;;8.30;99.90;;;;;;4413984;32;20106;-71
2021/12/15 01:06:22;;;;;;;7.37;2.37;;;8.30;99.90;;;;;;4417592;32;20069;-70
2021/12/15 01:08:55;;;;;;;16.80;1.95;;;8.30;99.90;;;;;;4416528;32;20545;-70
2021/12/15 01:19:55;;;;;;;1.90;1.50;;;8.20;99.90;;;;;;4402942;32;20012;-70
2021/12/15 01:22:32;;;;;;;1.58;1.35;;;8.30;99.90;;;;;;4419460;32;20125;-70
2021/12/15 01:25:03;;;;;;;2.05;1.58;;;8.30;99.90;;;;;;4421225;32;20094;-70
2021/12/15 01:27:29;;;;;;;8.45;2.75;;;8.30;99.90;;;;;;4420427;32;20062;-70
2021/12/15 01:29:55;;;;;;;2.87;2.08;;;8.30;99.90;;;;;;4421017;32;20054;-70
2021/12/15 01:32:20;;;;;;;1.40;1.25;;;8.30;99.90;;;;;;4420201;32;20090;-69
2021/12/15 01:34:47;;;;;;;4.22;1.80;;;8.30;99.90;;;;;;4416612;32;20065;-69
2021/12/15 01:37:12;;;;;;;2.10;1.15;;;8.30;99.90;;;;;;4419787;32;20503;-70
2021/12/15 01:39:40;;;;;;;3.47;1.60;;;8.30;99.90;;;;;;4417673;32;20093;-70
2021/12/15 01:42:06;;;;;;;3.62;1.98;;;8.30;99.90;;;;;;4419831;32;20062;-71
2021/12/15 01:47:02;;;;;;;5.97;1.52;;;8.40;99.90;;;;;;4419035;32;20090;-70
2021/12/15 01:49:34;;;;;;;2.78;1.40;;;8.30;99.90;;;;;;4419607;32;20089;-69
2021/12/15 01:52:09;;;;;;;2.80;1.52;;;8.40;99.90;;;;;;4419306;32;20094;-70
2021/12/15 01:54:37;;;;;;;2.12;1.45;;;8.40;99.90;;;;;;4422045;32;20057;-71
2021/12/15 01:57:05;;;;;;;3.90;1.55;;;8.40;99.90;;;;;;4417285;32;20097;-70
2021/12/15 01:59:31;;;;;;;3.00;1.40;;;8.40;99.90;;;;;;4419897;32;20073;-69
2021/12/15 02:01:58;;;;;;;15.30;1.20;;;8.40;99.90;;;;;;4419583;32;20585;-70
2021/12/15 02:04:24;;;;;;;1.67;1.55;;;8.40;99.90;;;;;;4417577;32;20605;-70
2021/12/15 02:06:49;;;;;;;1.73;1.30;;;8.50;99.90;;;;;;4416800;32;20118;-70
2021/12/15 02:09:32;;;;;;;4.80;1.70;;;8.40;99.90;;;;;;4416249;32;20062;-70
2021/12/15 02:11:58;;;;;;;2.92;1.45;;;8.50;99.90;;;;;;4418290;32;20212;-69
2021/12/15 02:14:23;;;;;;;2.83;1.00;;;8.50;99.90;;;;;;4418060;32;20488;-69
2021/12/15 02:16:49;;;;;;;2.50;1.55;;;8.50;99.90;;;;;;4418956;32;20125;-69
2021/12/15 02:19:14;;;;;;;15.27;1.77;;;8.50;99.90;;;;;;4415885;32;20062;-70
2021/12/15 02:21:41;;;;;;;2.22;1.27;;;8.40;99.90;;;;;;4415469;32;20085;-70
2021/12/15 02:24:06;;;;;;;5.15;0.98;;;8.40;99.90;;;;;;4419250;32;20098;-70
2021/12/15 02:26:37;;;;;;;1.33;0.98;;;8.50;99.90;;;;;;4418063;32;20085;-70
2021/12/15 02:29:06;;;;;;;3.00;1.73;;;8.50;99.90;;;;;;4420284;32;20073;-70
2021/12/15 02:31:55;;;;;;;3.72;1.15;;;8.50;99.90;;;;;;4418883;32;20066;-70
2021/12/15 02:37:26;;;;;;;4.28;1.40;;;8.50;99.90;;;;;;4421541;32;20085;-70
2021/12/15 02:39:40;;;;;;;2.42;1.52;;;8.50;99.90;;;;;;4405884;32;20547;-70
2021/12/15 02:42:07;;;;;;;2.87;1.45;;;8.50;99.90;;;;;;4420435;32;20089;-70
2021/12/15 02:44:33;;;;;;;3.95;2.05;;;8.40;99.90;;;;;;4415248;32;20581;-70
2021/12/15 02:46:58;;;;;;;2.65;1.58;;;8.40;99.90;;;;;;4418343;32;20133;-70
2021/12/15 02:49:27;;;;;;;5.25;1.50;;;8.40;99.90;;;;;;4415589;32;20058;-70
2021/12/15 02:51:55;;;;;;;1.75;1.27;;;8.40;99.90;;;;;;4415376;32;20467;-70
2021/12/15 02:54:22;;;;;;;2.42;1.35;;;8.40;99.90;;;;;;4417048;32;20053;-70
2021/12/15 02:56:51;;;;;;;5.05;1.90;;;8.40;99.90;;;;;;4419955;32;20065;-69
2021/12/15 02:59:24;;;;;;;2.85;2.28;;;8.40;99.90;;;;;;4417019;32;20556;-69
2021/12/15 03:02:07;;;;;;;2.87;1.40;;;8.40;99.90;;;;;;4419420;32;20132;-69
2021/12/15 03:04:45;;;;;;;2.85;1.42;;;8.40;99.90;;;;;;4420777;32;20066;-69
2021/12/15 03:07:24;;;;;;;10.52;2.30;;;8.40;99.90;;;;;;4417844;32;20110;-69
2021/12/15 03:15:20;;;;;;;5.78;1.35;;;8.40;99.90;;;;;;4411858;32;20074;-70
2021/12/15 03:18:01;;;;;;;1.25;1.15;;;8.40;99.90;;;;;;4418323;32;20121;-70
2021/12/15 03:20:30;;;;;;;1.40;0.73;;;8.40;99.90;;;;;;4417974;32;20114;-70
2021/12/15 03:22:56;;;;;;;2.83;1.67;;;8.50;99.90;;;;;;4421807;32;20113;-70
2021/12/15 03:25:24;;;;;;;2.03;1.25;;;8.50;99.90;;;;;;4420439;32;20146;-69
2021/12/15 03:33:35;;;;;;;2.33;1.05;;;8.50;99.90;;;;;;4403959;32;20133;-70
2021/12/15 03:36:08;;;;;;;2.90;2.35;;;8.50;99.90;;;;;;4417827;32;20061;-69
2021/12/15 03:38:35;;;;;;;1.48;1.17;;;8.50;99.90;;;;;;4416812;32;20066;-70
2021/12/15 03:41:03;;;;;;;1.42;1.17;;;8.40;99.90;;;;;;4419629;32;20077;-70
2021/12/15 03:43:31;;;;;;;5.50;1.30;;;8.50;99.90;;;;;;4418572;32;20731;-69
2021/12/15 03:46:01;;;;;;;2.92;1.60;;;8.40;99.90;;;;;;4417816;32;20679;-70
2021/12/15 03:48:31;;;;;;;2.07;0.77;;;8.50;99.90;;;;;;4417769;32;20062;-68
2021/12/15 03:50:57;;;;;;;23.27;1.30;;;8.50;99.90;;;;;;4418350;32;20608;-69
2021/12/15 03:53:24;;;;;;;3.17;0.93;;;8.50;99.90;;;;;;4418458;32;20065;-69
2021/12/15 03:55:50;;;;;;;3.45;1.42;;;8.50;99.90;;;;;;4418016;32;20082;-70
2021/12/15 03:58:19;;;;;;;1.27;1.08;;;8.50;99.90;;;;;;4419106;32;20443;-70
2021/12/15 04:00:48;;;;;;;2.58;0.93;;;8.40;99.90;;;;;;4420105;32;20078;-70
2021/12/15 04:03:26;;;;;;;1.25;1.15;;;8.40;99.90;;;;;;4416846;32;20077;-70
2021/12/15 04:05:53;;;;;;;1.80;1.17;;;8.50;99.90;;;;;;4415880;32;20073;-70
2021/12/15 04:08:19;;;;;;;8.35;1.12;;;8.40;99.90;;;;;;4418235;32;20089;-69
2021/12/15 04:10:44;;;;;;;1.75;0.88;;;8.40;99.90;;;;;;4419641;32;20124;-70
2021/12/15 04:13:12;;;;;;;1.77;0.98;;;8.40;99.90;;;;;;4416664;32;20077;-70
2021/12/15 04:15:44;;;;;;;2.20;1.27;;;8.40;99.90;;;;;;4423215;32;20426;-69
2021/12/15 04:18:11;;;;;;;0.88;0.88;;;8.50;99.90;;;;;;4420570;32;20561;-70
2021/12/15 04:20:38;;;;;;;3.90;1.12;;;8.50;99.90;;;;;;4419437;32;20065;-69
2021/12/15 04:23:08;;;;;;;2.85;1.60;;;8.50;99.90;;;;;;4418759;32;20086;-71
2021/12/15 04:25:36;;;;;;;4.62;1.48;;;8.50;99.90;;;;;;4418457;32;20058;-70
2021/12/15 04:28:15;;;;;;;1.12;0.90;;;8.50;99.90;;;;;;4417486;32;20101;-69
2021/12/15 04:30:45;;;;;;;0.65;0.65;;;8.50;99.90;;;;;;4418828;32;20120;-70
2021/12/15 04:33:23;;;;;;;1.10;1.10;;;8.40;99.90;;;;;;4409180;32;90411;-69
2021/12/15 04:35:52;;;;;;;1.12;1.02;;;8.50;99.90;;;;;;4418225;32;20573;-71
2021/12/15 04:38:17;;;;;;;2.20;1.12;;;8.50;99.90;;;;;;4417078;32;20513;-70
2021/12/15 04:40:43;;;;;;;0.80;0.80;;;8.40;99.90;;;;;;4416768;32;20089;-70
2021/12/15 04:43:10;;;;;;;5.40;1.95;;;8.40;99.90;;;;;;4418975;32;20637;-70
2021/12/15 04:45:36;;;;;;;3.03;1.15;;;8.40;99.90;;;;;;4418376;32;20101;-70
2021/12/15 04:48:02;;;;;;;3.00;1.10;;;8.50;99.90;;;;;;4418331;32;20050;-70
2021/12/15 04:50:30;;;;;;;5.32;1.48;;;8.40;99.90;;;;;;4416974;32;20640;-70
2021/12/15 04:52:59;;;;;;;2.75;1.75;;;8.40;99.90;;;;;;4420977;32;20081;-70
2021/12/15 04:55:25;;;;;;;0.82;0.82;;;8.40;99.90;;;;;;4417092;32;20097;-70
2021/12/15 04:57:51;;;;;;;1.90;1.30;;;8.50;99.90;;;;;;4418383;32;20106;-70
2021/12/15 05:00:21;;;;;;;2.28;0.82;;;8.50;99.90;;;;;;4420136;32;20065;-70
2021/12/15 05:02:47;;;;;;;2.08;1.62;;;8.60;99.90;;;;;;4420355;32;20056;-70
2021/12/15 05:05:13;;;;;;;3.00;1.45;;;8.60;99.90;;;;;;4418493;32;20181;-70
2021/12/15 05:07:40;;;;;;;1.40;1.27;;;8.60;99.90;;;;;;4421932;32;20082;-69
2021/12/15 05:10:08;;;;;;;1.52;1.10;;;8.60;99.90;;;;;;4419197;32;20121;-70
2021/12/15 05:12:34;;;;;;;0.70;0.70;;;8.50;99.90;;;;;;4417092;32;20062;-70
2021/12/15 05:15:00;;;;;;;13.13;1.77;;;8.50;99.90;;;;;;4421794;32;20125;-70
2021/12/15 05:17:25;;;;;;;3.45;1.27;;;8.50;99.90;;;;;;4422925;32;20109;-70
2021/12/15 05:19:51;;;;;;;2.50;1.42;;;8.50;99.90;;;;;;4417729;32;20093;-69
2021/12/15 05:22:18;;;;;;;1.08;0.93;;;8.50;99.90;;;;;;4414630;32;20073;-70
2021/12/15 05:24:43;;;;;;;2.65;1.23;;;8.50;99.90;;;;;;4421128;32;20094;-70
2021/12/15 05:27:13;;;;;;;2.30;1.10;;;8.50;99.90;;;;;;4418937;32;20061;-70
2021/12/15 05:29:41;;;;;;;1.60;1.15;;;8.40;99.90;;;;;;4420567;32;20537;-69
2021/12/15 05:32:08;;;;;;;1.15;1.00;;;8.50;99.90;;;;;;4418551;32;20078;-70
2021/12/15 05:34:35;;;;;;;7.20;1.70;;;8.40;99.90;;;;;;4418923;32;20106;-70
2021/12/15 05:37:01;;;;;;;0.65;0.65;;;8.30;99.90;;;;;;4419701;32;20085;-69
2021/12/15 05:39:27;;;;;;;0.77;0.77;;;8.30;99.90;;;;;;4420560;32;20439;-71
2021/12/15 05:41:53;;;;;;;4.65;1.55;;;8.30;99.90;;;;;;4421405;32;20079;-71
2021/12/15 05:44:21;;;;;;;2.20;1.50;;;8.30;99.90;;;;;;4419628;32;20081;-70
2021/12/15 05:46:48;;;;;;;2.50;1.50;;;8.30;99.90;;;;;;4423564;32;20061;-71
2021/12/15 05:49:13;;;;;;;8.55;1.50;;;8.40;99.90;;;;;;4419955;32;20124;-70
2021/12/15 05:51:39;;;;;;;1.45;1.35;;;8.50;99.90;;;;;;4415886;32;20092;-70
2021/12/15 05:54:07;;;;;;;0.50;0.50;;;8.40;99.90;;;;;;4418719;32;20065;-70
2021/12/15 05:56:34;;;;;;;2.75;1.70;;;8.40;99.90;;;;;;4420207;32;20066;-70
2021/12/15 05:59:00;;;;;;;23.08;1.48;;;8.30;99.90;;;;;;4418860;32;20562;-70
2021/12/15 06:01:26;;;;;;;1.55;1.45;;;8.30;99.90;;;;;;4411445;32;20592;-70
2021/12/15 06:04:02;;;;;;;1.92;1.52;;;8.30;99.90;;;;;;4416949;32;20318;-70
2021/12/15 06:06:39;;;;;;;2.72;1.15;;;8.30;99.90;;;;;;4417233;32;20081;-70
2021/12/15 06:09:08;;;;;;;1.67;1.35;;;8.30;99.90;;;;;;4416582;32;20101;-71
2021/12/15 06:11:37;;;;;;;5.65;1.75;;;8.40;99.90;;;;;;4416420;32;20408;-71
2021/12/15 06:14:04;;;;;;;4.85;1.58;;;8.40;99.90;;;;;;4416699;32;20106;-71
2021/12/15 06:16:31;;;;;;;3.15;1.40;;;8.40;99.90;;;;;;4416977;32;20093;-70
2021/12/15 06:19:00;;;;;;;18.15;2.08;;;8.40;99.90;;;;;;4409427;32;20137;-71
2021/12/15 06:21:27;;;;;;;0.88;0.82;;;8.40;99.90;;;;;;4418694;32;20074;-70
2021/12/15 06:23:52;;;;;;;2.25;1.62;;;8.40;99.90;;;;;;4420805;32;20145;-70
2021/12/15 06:26:19;;;;;;;2.00;0.90;;;8.30;99.90;;;;;;4407896;32;20408;-70
2021/12/15 06:28:46;;;;;;;2.25;1.40;;;8.30;99.90;;;;;;4414858;32;20160;-69
2021/12/15 06:31:16;;;;;;;2.83;0.90;;;8.40;99.90;;;;;;4400507;32;20074;-70
2021/12/15 06:33:43;;;;;;;1.12;1.02;;;8.40;99.90;;;;;;4413392;32;20117;-70
2021/12/15 06:36:11;;;;;;;0.95;0.85;;;8.40;99.90;;;;;;4416558;32;20466;-70
2021/12/15 06:38:40;;;;;;;4.37;1.33;;;8.40;99.90;;;;;;4416388;32;20569;-70
2021/12/15 06:41:09;;;;;;;14.70;1.30;;;8.50;99.90;;;;;;4415286;32;20089;-70
2021/12/15 06:43:36;;;;;;;1.37;0.90;;;8.40;99.90;;;;;;4411104;32;20069;-70
2021/12/15 06:58:13;;;;;;;2.25;0.85;;;8.50;99.90;;;;;;4392186;32;20114;-70
2021/12/15 06:59:52;;;;;;;3.42;1.15;;;8.40;99.90;;;;;;4394665;32;20114;-69
2021/12/15 07:02:17;;;;;;;0.62;0.52;;;8.50;99.90;;;;;;4408221;32;20086;-71
2021/12/15 07:04:43;;;;;;;0.70;0.70;;;8.50;99.90;;;;;;4404704;32;20082;-70
2021/12/15 07:07:08;;;;;;;4.68;1.42;;;8.50;99.90;;;;;;4404622;32;20065;-70
2021/12/15 07:09:34;;;;;;;3.22;1.37;;;8.50;99.90;;;;;;4409874;32;20109;-69
2021/12/15 07:12:02;;;;;;;1.60;1.08;;;8.50;99.90;;;;;;4411604;32;20155;-70
2021/12/15 07:14:28;;;;;;;7.25;1.55;;;8.50;99.90;;;;;;4411899;32;20542;-70
2021/12/15 07:16:55;;;;;;;0.75;0.73;;;8.50;99.90;;;;;;4411277;32;20053;-71
2021/12/15 07:19:33;;;;;;;0.98;0.90;;;8.50;99.90;;;;;;4413363;32;20155;-70
2021/12/15 07:22:30;;;;;;;0.60;0.60;;;8.50;99.90;;;;;;4408398;32;20087;-70
2021/12/15 07:24:46;;;;;;;1.77;1.27;;;8.50;99.90;;;;;;4396584;32;20125;-70
2021/12/15 07:27:12;;;;;;;0.77;0.77;;;8.50;99.90;;;;;;4413445;32;20057;-70
2021/12/15 07:29:37;;;;;;;1.20;1.10;;;8.50;99.90;;;;;;4405386;32;20157;-70
2021/12/15 07:32:04;;;;;;;1.87;0.93;;;8.60;99.90;;;;;;4411215;32;20124;-70
2021/12/15 07:34:29;;;;;;;6.07;1.25;;;8.60;99.90;;;;;;4409261;32;20094;-70
2021/12/15 07:36:55;;;;;;;15.60;1.35;;;8.50;99.90;;;;;;4412391;32;20057;-70
2021/12/15 07:39:22;;;;;;;1.02;0.82;;;8.50;99.90;;;;;;4407482;32;20193;-69
2021/12/15 07:41:51;;;;;;;1.05;0.95;;;8.50;99.90;;;;;;4412514;32;20066;-71
2021/12/15 07:44:19;;;;;;;2.37;1.17;;;8.50;99.90;;;;;;4417614;32;20098;-71
2021/12/15 07:46:46;;;;;;;0.85;0.85;;;8.50;99.90;;;;;;4413295;32;20105;-71
2021/12/15 07:49:12;;;;;;;1.87;0.90;;;8.50;99.90;;;;;;4415375;32;20108;-70
2021/12/15 07:51:41;;;;;;;1.00;0.90;;;8.50;99.90;;;;;;4412794;32;20215;-69
2021/12/15 07:54:07;;;;;;;3.30;1.30;;;8.50;99.90;;;;;;4406884;32;20098;-70
2021/12/15 07:56:33;;;;;;;5.18;1.58;;;8.50;99.90;;;;;;4411518;32;20066;-71
2021/12/15 07:58:58;;;;;;;0.80;0.80;;;8.50;99.90;;;;;;4411466;32;20418;-70
2021/12/15 08:01:24;;;;;;;0.80;0.75;;;8.50;99.90;;;;;;4414622;32;20061;-71
2021/12/15 08:03:54;;;;;;;1.80;0.98;;;8.60;99.90;;;;;;4412920;32;20134;-71
2021/12/15 08:06:21;;;;;;;2.80;0.90;;;8.60;99.90;;;;;;4406335;32;20196;-71
2021/12/15 08:08:46;;;;;;;0.75;0.75;;;8.60;99.90;;;;;;4411679;32;20126;-71
2021/12/15 08:11:12;;;;;;;3.97;0.95;;;8.70;99.90;;;;;;4411707;32;20366;-71
2021/12/15 08:13:38;;;;;;;2.33;1.10;;;8.70;99.90;;;;;;4412521;32;20062;-70
2021/12/15 08:16:04;;;;;;;1.80;0.93;;;8.70;99.90;;;;;;4410489;32;20807;-70
2021/12/15 08:18:30;;;;;;;2.40;1.05;;;8.70;99.90;;;;;;4417155;32;20176;-70
2021/12/15 08:20:57;;;;;;;1.17;1.02;;;8.70;99.90;;;;;;4408614;32;20081;-69
2021/12/15 08:23:23;;;;;;;1.00;0.85;;;8.70;99.90;;;;;;4409988;32;20102;-69
2021/12/15 08:25:49;;;;;;;2.50;0.75;;;8.60;99.90;;;;;;4407037;32;20174;-70
2021/12/15 08:28:16;;;;;;;3.90;1.48;;;8.60;99.90;;;;;;4409441;32;20074;-70
2021/12/15 08:30:44;;;;;;;1.73;0.90;;;8.60;99.90;;;;;;4407923;32;20074;-70
2021/12/15 08:33:16;;;;;;;1.25;0.60;;;8.70;99.90;;;;;;4401788;32;20084;-69
2021/12/15 08:35:47;;;;;;;2.87;0.93;;;8.80;99.90;;;;;;4404789;32;20069;-69
2021/12/15 08:38:13;;;;;;;1.25;0.95;;;8.70;99.90;;;;;;4404929;32;20141;-70
2021/12/15 08:40:40;;;;;;;0.77;0.68;;;8.70;99.90;;;;;;4407459;32;20169;-70
2021/12/15 08:43:07;;;;;;;1.55;0.75;;;8.70;99.90;;;;;;4407956;32;20668;-69
2021/12/15 08:45:35;;;;;;;0.82;0.82;;;8.70;99.90;;;;;;4403081;32;20200;-69
2021/12/15 08:48:04;;;;;;;1.48;0.80;;;8.80;99.90;;;;;;4399293;32;20114;-69
2021/12/15 08:50:34;;;;;;;1.23;1.05;;;8.80;99.90;;;;;;4397433;32;21255;-70
2021/12/15 08:53:01;;;;;;;3.20;1.30;;;8.90;99.90;;;;;;4393135;32;20110;-69
2021/12/15 08:55:27;;;;;;;0.60;0.60;;;8.90;99.90;;;;;;4403496;32;20094;-69
2021/12/15 08:57:56;;;;;;;4.10;1.45;;;8.90;99.90;;;;;;4410828;32;20070;-69
2021/12/15 09:00:24;;;;;;;0.93;0.82;;;8.80;99.90;;;;;;4408371;32;20081;-69
2021/12/15 09:02:50;;;;;;;2.75;1.15;;;8.90;99.90;;;;;;4405631;32;20093;-69
2021/12/15 09:05:20;;;;;;;2.40;1.33;;;8.90;99.90;;;;;;4406560;32;20513;-69
2021/12/15 09:07:49;;;;;;;10.60;1.47;;;9.00;99.90;;;;;;4412139;32;20086;-69
2021/12/15 09:10:15;;;;;;;0.68;0.68;;;9.00;99.90;;;;;;4410507;32;21113;-70
2021/12/15 09:12:41;;;;;;;3.72;1.35;;;9.00;99.90;;;;;;4409041;32;20098;-70
2021/12/15 09:15:08;;;;;;;0.70;0.70;;;9.10;99.90;;;;;;4413485;32;20073;-69
2021/12/15 09:17:34;;;;;;;0.70;0.70;;;9.10;99.90;;;;;;4408911;32;20093;-70
2021/12/15 09:19:59;;;;;;;1.55;1.27;;;9.10;99.90;;;;;;4410954;32;20134;-69
2021/12/15 09:22:25;;;;;;;1.80;1.08;;;9.10;99.90;;;;;;4412035;32;20107;-69
2021/12/15 09:24:51;;;;;;;1.10;1.02;;;9.20;99.90;;;;;;4410705;32;20161;-69
2021/12/15 09:27:17;;;;;;;0.70;0.70;;;9.20;99.90;;;;;;4410987;32;20477;-69
2021/12/15 09:29:42;;;;;;;3.62;0.82;;;9.20;99.90;;;;;;4411829;32;20132;-70
2021/12/15 09:32:08;;;;;;;1.58;0.93;;;9.20;99.90;;;;;;4410266;32;20070;-69
2021/12/15 09:34:35;;;;;;;1.33;0.98;;;9.30;99.90;;;;;;4403593;32;20057;-69
2021/12/15 09:37:02;;;;;;;1.30;0.85;;;9.30;99.90;;;;;;4404027;32;20724;-69
2021/12/15 09:39:28;;;;;;;0.40;0.40;;;9.30;99.90;;;;;;4404803;32;20090;-69
2021/12/15 09:41:54;;;;;;;2.15;1.10;;;9.30;99.90;;;;;;4409202;32;20059;-69
2021/12/15 09:44:23;;;;;;;3.70;0.80;;;9.30;99.90;;;;;;4416063;32;20220;-70
2021/12/15 09:47:16;;;;;;;0.98;0.95;;;9.30;99.90;;;;;;4412225;32;20600;-69
2021/12/15 09:57:23;;;;;;;0.60;0.60;;;9.30;99.90;;;;;;4400254;32;20080;-69
2021/12/15 10:02:44;;;;;;;1.33;0.68;;;9.30;99.90;;;;;;4411894;32;20050;-70
2021/12/15 10:11:42;;;;;;;1.77;0.95;;;9.30;99.90;;;;;;4395773;32;20086;-69
2021/12/15 10:17:33;;;;;;;0.90;0.75;;;9.30;99.90;;;;;;4397123;32;20831;-69
2021/12/15 10:19:46;;;;;;;1.95;0.93;;;9.40;99.90;;;;;;4390877;32;20674;-69
2021/12/15 10:22:30;;;;;;;0.85;0.75;;;9.40;99.90;;;;;;4401323;32;20973;-68
2021/12/15 10:24:59;;;;;;;0.62;0.55;;;9.30;99.90;;;;;;4398011;32;20113;-68
2021/12/15 10:27:45;;;;;;;0.93;0.80;;;9.30;99.90;;;;;;4397791;32;20066;-71
2021/12/15 10:30:19;;;;;;;0.70;0.70;;;9.40;99.90;;;;;;4401095;32;20203;-69
2021/12/15 10:32:47;;;;;;;1.27;0.95;;;9.40;99.90;;;;;;4395121;32;20146;-69
2021/12/15 10:35:20;;;;;;;0.88;0.88;;;9.50;99.90;;;;;;4394787;32;20094;-70
2021/12/15 10:38:25;;;;;;;1.60;1.00;;;9.40;99.90;;;;;;4404374;32;20085;-70
2021/12/15 10:41:00;;;;;;;0.50;0.50;;;9.40;99.90;;;;;;4408909;32;20069;-70
2021/12/15 10:43:34;;;;;;;1.65;1.00;;;9.40;99.90;;;;;;4411974;32;20188;-69
2021/12/15 10:46:07;;;;;;;2.08;1.33;;;9.40;99.90;;;;;;4414420;32;20097;-70
2021/12/15 10:48:43;;;;;;;1.83;0.90;;;9.40;99.90;;;;;;4414677;32;20082;-69
2021/12/15 10:51:30;;;;;;;2.17;1.05;;;9.40;99.90;;;;;;4412291;32;20098;-69
2021/12/15 10:54:01;;;;;;;1.10;0.80;;;9.40;99.90;;;;;;4402344;32;20509;-71
2021/12/15 10:56:35;;;;;;;0.93;0.85;;;9.40;99.90;;;;;;4412028;32;20150;-70
2021/12/15 10:59:05;;;;;;;1.23;0.88;;;9.40;99.90;;;;;;4413534;32;20105;-70
2021/12/15 11:01:49;;;;;;;1.45;0.77;;;9.40;99.90;;;;;;4413412;32;20085;-70
2021/12/15 11:04:37;;;;;;;0.95;0.93;;;9.40;99.90;;;;;;4412435;32;20160;-69
2021/12/15 11:07:36;;;;;;;0.50;0.50;;;9.40;99.90;;;;;;4398494;32;20661;-69
2021/12/15 11:10:15;;;;;;;0.75;0.75;;;9.50;99.90;;;;;;4410941;32;20089;-69
2021/12/15 11:12:48;;;;;;;4.55;0.93;;;9.50;99.90;;;;;;4413787;32;20120;-70
2021/12/15 11:15:22;;;;;;;0.95;0.95;;;9.50;99.90;;;;;;4401755;32;20924;-70
2021/12/15 11:17:58;;;;;;;1.85;1.25;;;9.60;99.90;;;;;;4406503;32;20113;-71
2021/12/15 11:20:30;;;;;;;1.02;0.90;;;9.60;99.90;;;;;;4407095;32;20097;-70
2021/12/15 11:22:58;;;;;;;0.70;0.70;;;9.60;99.90;;;;;;4409205;32;20089;-70
2021/12/15 11:25:43;;;;;;;0.68;0.68;;;9.60;99.90;;;;;;4406052;32;20114;-68
2021/12/15 11:28:27;;;;;;;0.40;0.40;;;9.70;99.90;;;;;;4402365;32;20137;-70
2021/12/15 11:30:59;;;;;;;0.85;0.85;;;9.70;99.90;;;;;;4402441;32;20883;-70
2021/12/15 11:33:29;;;;;;;0.85;0.75;;;9.70;99.90;;;;;;4411331;32;20527;-69
2021/12/15 11:36:05;;;;;;;0.70;0.70;;;9.70;99.90;;;;;;4410004;32;20080;-70
2021/12/15 11:38:36;;;;;;;0.40;0.40;;;9.80;99.90;;;;;;4409382;32;20490;-71
2021/12/15 11:41:12;;;;;;;0.60;0.60;;;9.80;99.90;;;;;;4414496;32;20089;-70
2021/12/15 11:43:46;;;;;;;1.15;0.80;;;9.90;99.90;;;;;;4411436;32;20413;-70
2021/12/15 11:46:22;;;;;;;0.68;0.68;;;9.90;99.90;;;;;;4410581;32;20606;-70
2021/12/15 11:48:52;;;;;;;1.00;0.70;;;10.00;99.90;;;;;;4410633;32;20407;-70
2021/12/15 11:51:28;;;;;;;0.50;0.50;;;10.00;99.90;;;;;;4400733;32;20601;-70
2021/12/15 11:53:53;;;;;;;0.82;0.60;;;10.10;99.90;;;;;;4401974;32;20145;-70
2021/12/15 11:56:26;;;;;;;0.80;0.80;;;10.20;99.90;;;;;;4393944;32;20219;-70
2021/12/15 11:58:56;;;;;;;1.27;1.17;;;10.10;99.90;;;;;;4387251;32;20113;-70
2021/12/15 12:01:45;;;;;;;0.70;0.70;;;10.00;99.90;;;;;;4380135;32;21081;-69
2021/12/15 12:04:20;;;;;;;3.10;0.77;;;10.00;99.90;;;;;;4377506;32;20106;-70
2021/12/15 12:06:48;;;;;;;0.62;0.62;;;10.00;99.90;;;;;;4395968;32;20089;-70
2021/12/15 12:09:16;;;;;;;7.47;1.42;;;10.10;99.90;;;;;;4393142;32;20918;-71
2021/12/15 12:11:44;;;;;;;1.55;1.02;;;10.10;99.90;;;;;;4383421;32;20329;-70
2021/12/15 12:14:18;;;;;;;0.57;0.57;;;10.10;99.90;;;;;;4387425;32;20148;-70
2021/12/15 12:16:45;;;;;;;4.95;1.02;;;10.20;99.90;;;;;;4393698;32;21436;-70
2021/12/15 12:19:13;;;;;;;0.40;0.40;;;10.20;99.90;;;;;;4387465;32;20094;-70
2021/12/15 12:21:39;;;;;;;0.95;0.68;;;10.20;99.90;;;;;;4399211;32;20106;-71
2021/12/15 12:24:06;;;;;;;0.77;0.62;;;10.20;99.90;;;;;;4395777;32;20714;-70
2021/12/15 12:26:34;;;;;;;1.95;0.77;;;10.30;99.90;;;;;;4393331;32;20109;-70
2021/12/15 12:29:01;;;;;;;0.75;0.65;;;10.30;99.90;;;;;;4397352;32;20089;-70
2021/12/15 12:31:28;;;;;;;0.50;0.50;;;10.30;99.90;;;;;;4392192;32;20104;-70
2021/12/15 12:33:54;;;;;;;0.70;0.70;;;10.30;99.90;;;;;;4382640;32;20861;-71
2021/12/15 12:36:26;;;;;;;0.68;0.68;;;10.30;99.90;;;;;;4397534;32;20097;-70
2021/12/15 12:38:57;;;;;;;0.50;0.50;;;10.40;99.90;;;;;;4389592;32;20106;-70
2021/12/15 12:41:29;;;;;;;0.60;0.60;;;10.40;99.90;;;;;;4395773;32;20077;-71
2021/12/15 12:44:02;;;;;;;0.65;0.65;;;10.40;99.90;;;;;;4400052;32;20470;-71
2021/12/15 12:46:37;;;;;;;0.70;0.70;;;10.40;99.90;;;;;;4396339;32;20102;-70
2021/12/15 12:50:30;;;;;;;1.60;1.02;;;10.40;99.90;;;;;;4399820;32;20243;-71
2021/12/15 12:59:21;;;;;;;1.15;0.93;;;10.40;99.90;;;;;;4396619;32;20070;-70
2021/12/15 13:00:33;;;;;;;0.80;0.80;;;10.30;99.90;;;;;;4407852;32;20090;-71
2021/12/15 13:03:05;;;;;;;0.70;0.70;;;10.30;99.90;;;;;;4412152;32;20365;-70
2021/12/15 13:05:52;;;;;;;0.60;0.60;;;10.30;99.90;;;;;;4408222;32;20160;-70
2021/12/15 13:08:38;;;;;;;4.95;1.08;;;10.20;99.90;;;;;;4394312;32;20109;-71
2021/12/15 13:11:25;;;;;;;0.43;0.43;;;10.20;99.90;;;;;;4406348;32;20133;-71
2021/12/15 13:13:55;;;;;;;0.40;0.40;;;10.20;99.90;;;;;;4406610;32;20153;-70
2021/12/15 13:16:29;;;;;;;0.95;0.82;;;10.20;99.90;;;;;;4406394;32;20141;-72
2021/12/15 13:19:00;;;;;;;1.33;0.57;;;10.20;99.90;;;;;;4409022;32;20073;-72
2021/12/15 13:21:51;;;;;;;0.65;0.65;;;10.20;99.90;;;;;;4410572;32;20582;-72
2021/12/15 13:28:51;;;;;;;0.55;0.55;;;10.30;99.90;;;;;;4388300;32;20090;-72
2021/12/15 13:30:40;;;;;;;0.43;0.43;;;10.30;99.90;;;;;;4392279;32;20093;-69
2021/12/15 13:33:13;;;;;;;0.82;0.77;;;10.20;99.90;;;;;;4403436;32;20623;-69
2021/12/15 13:35:44;;;;;;;0.50;0.50;;;10.20;99.90;;;;;;4407631;32;20544;-69
2021/12/15 13:38:11;;;;;;;1.40;0.90;;;10.20;99.90;;;;;;4409354;32;20158;-69
2021/12/15 13:41:03;;;;;;;0.77;0.50;;;10.20;99.90;;;;;;4409034;32;20096;-68
2021/12/15 13:43:48;;;;;;;1.30;0.82;;;10.20;99.90;;;;;;4414585;32;20142;-70
2021/12/15 13:46:35;;;;;;;0.57;0.57;;;10.20;99.90;;;;;;4415321;32;20061;-69
2021/12/15 13:49:04;;;;;;;1.00;0.80;;;10.20;99.90;;;;;;4414644;32;20082;-69
2021/12/15 13:52:09;;;;;;;0.57;0.57;;;10.20;99.90;;;;;;4413115;32;20108;-69
2021/12/15 13:54:37;;;;;;;0.60;0.60;;;10.30;99.90;;;;;;4400589;32;20109;-70
2021/12/15 13:57:23;;;;;;;17.52;1.30;;;10.30;99.90;;;;;;4414932;32;20101;-70
2021/12/15 13:59:54;;;;;;;0.47;0.47;;;10.30;99.90;;;;;;4407506;32;20186;-71
2021/12/15 14:02:30;;;;;;;0.50;0.50;;;10.30;99.90;;;;;;4416317;32;20080;-70
2021/12/15 14:05:03;;;;;;;2.80;1.25;;;10.20;99.90;;;;;;4413402;32;20430;-70
2021/12/15 14:07:31;;;;;;;0.90;0.80;;;10.20;99.90;;;;;;4402455;32;20061;-70
2021/12/15 14:09:59;;;;;;;0.62;0.62;;;10.20;99.90;;;;;;4413601;32;20077;-70
2021/12/15 14:12:47;;;;;;;0.73;0.73;;;10.20;99.90;;;;;;4412465;32;20066;-67
2021/12/15 14:15:14;;;;;;;0.43;0.43;;;10.20;99.90;;;;;;4403407;32;20138;-68